Time;durP1;ratioP1;P1;durP2;ratioP2;P2;SDS_P1;SDS_P2;PMS_P1;PMS_P2;Temp;Humidity;BMP_temperature;BMP_pressure;BME280_temperature;BME280_humidity;BME280_pressure;Samples;Min_cycle;Max_cycle;Signal;HPM_P1;HPM_P2
2021/07/03 00:02:14;;;;;;;2.80;1.58;;;;;;;20.67;73.25;100575.22;4992280;28;20069;-61
2021/07/03 00:04:42;;;;;;;3.58;1.80;;;;;;;20.58;73.54;100559.13;4993541;28;20096;-61
2021/07/03 00:07:09;;;;;;;2.90;1.73;;;;;;;20.68;73.20;100574.03;4992628;28;20376;-61
2021/07/03 00:09:37;;;;;;;2.65;1.55;;;;;;;20.61;73.17;100573.78;4991146;28;20078;-61
2021/07/03 00:12:08;;;;;;;4.03;1.98;;;;;;;20.56;73.19;100561.47;4992633;28;20088;-61
2021/07/03 00:14:36;;;;;;;4.45;1.65;;;;;;;20.26;73.32;100515.31;4995023;28;20054;-61
2021/07/03 00:17:04;;;;;;;3.47;2.20;;;;;;;20.42;73.28;100563.75;4978945;28;20499;-62
2021/07/03 00:19:31;;;;;;;5.25;2.60;;;;;;;20.49;73.45;100572.53;4993106;28;20042;-61
2021/07/03 00:21:58;;;;;;;8.93;2.25;;;;;;;20.51;73.53;100569.34;4995583;28;20081;-61
2021/07/03 00:24:25;;;;;;;5.53;2.75;;;;;;;20.56;73.22;100572.81;4984352;28;20475;-61
2021/07/03 00:26:55;;;;;;;6.85;3.00;;;;;;;20.54;73.35;100569.50;4991811;28;20057;-61
2021/07/03 00:29:22;;;;;;;8.95;2.25;;;;;;;20.51;73.52;100567.38;4990627;28;20142;-62
2021/07/03 00:31:49;;;;;;;6.70;2.75;;;;;;;20.49;73.44;100560.34;4986851;28;20125;-62
2021/07/03 00:34:16;;;;;;;6.38;3.10;;;;;;;20.57;73.54;100568.78;4991662;28;20069;-61
2021/07/03 00:36:43;;;;;;;7.13;3.47;;;;;;;20.47;73.47;100569.19;4985718;28;20137;-63
2021/07/03 00:39:10;;;;;;;10.05;3.25;;;;;;;20.36;73.91;100557.44;4986772;28;20194;-64
2021/07/03 00:41:36;;;;;;;6.00;3.38;;;;;;;20.35;74.02;100567.13;4989222;28;20078;-66
2021/07/03 00:44:03;;;;;;;7.50;3.45;;;;;;;20.31;73.91;100556.84;4991628;28;20082;-65
2021/07/03 00:46:30;;;;;;;11.80;3.65;;;;;;;20.26;74.03;100557.03;4993403;28;20085;-65
2021/07/03 00:48:57;;;;;;;10.68;4.15;;;;;;;20.27;73.95;100570.88;4989365;28;20491;-64
2021/07/03 00:51:24;;;;;;;12.05;4.10;;;;;;;20.28;74.17;100578.19;4987652;28;20121;-64
2021/07/03 00:53:51;;;;;;;14.35;4.32;;;;;;;20.28;74.00;100578.19;4994044;28;20146;-65
2021/07/03 00:56:18;;;;;;;12.05;4.07;;;;;;;20.30;74.19;100569.34;4990580;28;20137;-65
2021/07/03 00:58:45;;;;;;;9.57;3.97;;;;;;;20.25;74.06;100561.06;4977290;28;20054;-67
2021/07/03 01:01:12;;;;;;;20.85;4.00;;;;;;;20.20;74.17;100570.56;4988438;28;20039;-63
2021/07/03 01:03:39;;;;;;;17.92;3.22;;;;;;;20.11;74.46;100550.81;4983012;28;20137;-63
2021/07/03 01:06:06;;;;;;;27.35;5.03;;;;;;;20.15;74.36;100550.13;4981330;28;20530;-64
2021/07/03 01:08:33;;;;;;;13.95;3.50;;;;;;;20.11;74.31;100544.31;4990342;28;20133;-64
2021/07/03 01:10:59;;;;;;;20.92;3.60;;;;;;;20.10;74.24;100537.81;4989454;28;20207;-64
2021/07/03 01:13:29;;;;;;;60.03;5.28;;;;;;;20.18;74.26;100549.44;4991755;28;20555;-65
2021/07/03 01:15:56;;;;;;;26.88;3.33;;;;;;;20.13;74.34;100542.78;4993501;28;20050;-64
2021/07/03 01:18:23;;;;;;;48.80;6.30;;;;;;;20.13;74.12;100554.09;4992525;28;20042;-64
2021/07/03 01:20:53;;;;;;;18.75;3.78;;;;;;;20.20;74.41;100552.72;4989473;28;20051;-65
2021/07/03 01:23:22;;;;;;;40.38;4.80;;;;;;;20.25;74.11;100549.72;4994619;28;20086;-65
2021/07/03 01:25:58;;;;;;;36.25;4.60;;;;;;;20.21;74.39;100549.56;4983113;28;20097;-63
2021/07/03 01:28:25;;;;;;;52.80;5.43;;;;;;;20.30;74.26;100569.34;4993680;28;20138;-62
2021/07/03 01:30:53;;;;;;;29.20;4.47;;;;;;;20.31;74.19;100559.69;4987857;28;20125;-62
2021/07/03 01:33:21;;;;;;;65.85;5.10;;;;;;;20.29;74.04;100567.69;4987823;28;20125;-63
2021/07/03 01:35:47;;;;;;;21.63;3.83;;;;;;;20.21;74.28;100555.25;4989090;28;20093;-63
2021/07/03 01:38:19;;;;;;;26.23;3.97;;;;;;;20.07;74.11;100535.66;4989497;28;20070;-63
2021/07/03 01:40:47;;;;;;;57.85;5.10;;;;;;;20.27;74.24;100561.50;4980969;28;20108;-63
2021/07/03 01:43:25;;;;;;;34.88;4.80;;;;;;;20.26;74.12;100559.88;4986518;28;20495;-63
2021/07/03 01:45:53;;;;;;;9.25;3.55;;;;;;;20.28;74.16;100563.19;4982432;28;20470;-62
2021/07/03 01:48:31;;;;;;;20.67;3.55;;;;;;;20.19;74.15;100553.91;4989231;28;20082;-62
2021/07/03 01:50:59;;;;;;;13.40;3.30;;;;;;;20.17;74.50;100559.09;4992769;28;20430;-62
2021/07/03 01:53:27;;;;;;;13.07;3.80;;;;;;;20.15;74.39;100561.47;4987737;28;20049;-62
2021/07/03 01:55:54;;;;;;;9.25;2.80;;;;;;;20.17;74.55;100564.75;4990650;28;20141;-62
2021/07/03 01:58:23;;;;;;;6.53;2.70;;;;;;;20.19;74.46;100556.75;4990435;28;20125;-62
2021/07/03 02:00:56;;;;;;;5.53;2.60;;;;;;;20.08;74.64;100554.34;4991264;28;20537;-62
2021/07/03 02:03:23;;;;;;;8.65;2.85;;;;;;;20.08;74.70;100557.16;4987469;28;20342;-62
2021/07/03 02:05:50;;;;;;;4.40;2.10;;;;;;;20.06;75.02;100553.00;4981601;28;20125;-65
2021/07/03 02:08:18;;;;;;;7.10;2.40;;;;;;;20.13;74.78;100562.63;4986307;28;20151;-62
2021/07/03 02:10:45;;;;;;;8.07;2.80;;;;;;;20.07;74.79;100544.19;4988968;28;20084;-62
2021/07/03 02:13:12;;;;;;;9.23;3.22;;;;;;;20.09;74.57;100553.16;4977886;28;20122;-62
2021/07/03 02:15:40;;;;;;;9.35;2.33;;;;;;;20.07;74.62;100555.53;4989234;28;20578;-62
2021/07/03 02:18:07;;;;;;;7.93;2.78;;;;;;;20.02;74.65;100547.19;4991143;28;20050;-62
2021/07/03 02:20:34;;;;;;;10.80;2.85;;;;;;;20.12;74.62;100555.28;4990433;28;20104;-63
2021/07/03 02:23:03;;;;;;;10.60;3.28;;;;;;;20.17;74.72;100548.63;4988892;28;20117;-63
2021/07/03 02:25:30;;;;;;;9.38;2.85;;;;;;;20.10;74.45;100529.31;4989217;28;20061;-62
2021/07/03 02:27:57;;;;;;;7.78;2.75;;;;;;;20.14;74.28;100540.78;4991268;28;20129;-62
2021/07/03 02:30:24;;;;;;;11.32;3.00;;;;;;;20.23;74.44;100546.38;5006207;28;20133;-63
2021/07/03 02:32:51;;;;;;;12.30;3.05;;;;;;;20.18;74.35;100547.44;4981375;28;20049;-64
2021/07/03 02:35:20;;;;;;;20.80;3.25;;;;;;;20.06;74.48;100530.31;4988232;28;20136;-64
2021/07/03 02:37:47;;;;;;;6.40;2.50;;;;;;;20.03;74.42;100529.03;4983366;28;20080;-65
2021/07/03 02:40:16;;;;;;;7.57;2.78;;;;;;;20.12;74.34;100532.63;4988229;28;20053;-64
2021/07/03 02:42:44;;;;;;;6.23;2.57;;;;;;;20.00;74.37;100521.22;4982600;28;20590;-64
2021/07/03 02:45:13;;;;;;;7.15;2.30;;;;;;;20.08;74.30;100531.66;4989285;28;20402;-65
2021/07/03 02:47:41;;;;;;;7.82;2.63;;;;;;;20.01;74.46;100516.38;4991397;28;20162;-63
2021/07/03 02:50:11;;;;;;;10.27;2.95;;;;;;;20.06;74.34;100508.47;4990644;28;20506;-62
2021/07/03 02:52:38;;;;;;;5.68;2.55;;;;;;;20.09;74.13;100510.63;4977735;28;20554;-62
2021/07/03 02:55:07;;;;;;;10.18;3.05;;;;;;;20.19;73.96;100522.72;4978160;28;20057;-62
2021/07/03 02:57:34;;;;;;;5.85;2.92;;;;;;;20.20;74.40;100532.88;4979960;28;20129;-62
2021/07/03 03:00:05;;;;;;;14.82;3.50;;;;;;;20.16;73.97;100515.75;5000916;28;20137;-62
2021/07/03 03:02:32;;;;;;;10.77;2.67;;;;;;;20.25;73.94;100533.53;4987625;28;20509;-62
2021/07/03 03:04:59;;;;;;;14.38;3.35;;;;;;;20.21;74.20;100520.38;4989383;28;20590;-62
2021/07/03 03:07:26;;;;;;;4.35;2.40;;;;;;;20.33;74.05;100528.94;4985185;28;20172;-61
2021/07/03 03:09:52;;;;;;;14.57;3.00;;;;;;;20.29;74.17;100511.78;4984496;28;20134;-62
2021/07/03 03:12:19;;;;;;;8.07;2.65;;;;;;;20.38;73.89;100520.25;5006893;28;20145;-62
2021/07/03 03:14:46;;;;;;;10.35;2.67;;;;;;;20.36;73.82;100514.91;4988374;28;20039;-62
2021/07/03 03:17:14;;;;;;;6.38;2.60;;;;;;;20.26;73.77;100494.66;5005775;28;20081;-62
2021/07/03 03:19:41;;;;;;;6.97;2.60;;;;;;;20.47;73.54;100532.31;4992646;28;20046;-66
2021/07/03 03:22:08;;;;;;;13.65;3.70;;;;;;;20.39;73.73;100510.53;4982199;28;20057;-65
2021/07/03 03:24:35;;;;;;;6.95;2.90;;;;;;;20.46;73.76;100516.47;4978054;28;20047;-66
2021/07/03 03:27:02;;;;;;;9.27;3.15;;;;;;;20.52;73.74;100523.63;4979873;28;20073;-65
2021/07/03 03:29:29;;;;;;;10.07;2.42;;;;;;;20.51;73.46;100512.63;4989606;28;20126;-66
2021/07/03 03:31:55;;;;;;;11.27;2.80;;;;;;;20.54;73.69;100523.28;4992648;28;20142;-66
2021/07/03 03:34:22;;;;;;;12.32;2.85;;;;;;;20.53;73.36;100522.44;4989924;28;20050;-66
2021/07/03 03:36:49;;;;;;;13.30;3.22;;;;;;;20.47;73.44;100503.94;4976329;28;20161;-66
2021/07/03 03:39:16;;;;;;;10.55;3.63;;;;;;;20.40;73.53;100485.84;4989976;28;20129;-66
2021/07/03 03:41:43;;;;;;;8.95;2.90;;;;;;;20.50;73.18;100494.78;4987200;28;20499;-69
2021/07/03 03:44:10;;;;;;;6.80;2.33;;;;;;;20.59;73.41;100514.56;4982091;28;20137;-68
2021/07/03 03:46:37;;;;;;;9.75;3.40;;;;;;;20.56;73.51;100510.41;4989573;28;20042;-68
2021/07/03 03:49:04;;;;;;;12.70;3.45;;;;;;;20.62;73.45;100513.03;4988511;28;20463;-65
2021/07/03 03:51:31;;;;;;;7.63;3.10;;;;;;;20.51;73.51;100504.97;4984737;28;20089;-65
2021/07/03 03:53:58;;;;;;;16.50;4.15;;;;;;;20.49;73.27;100497.94;4989180;28;20087;-67
2021/07/03 03:56:24;;;;;;;9.10;3.03;;;;;;;20.53;73.37;100511.09;4988756;28;20129;-65
2021/07/03 03:58:51;;;;;;;10.40;2.97;;;;;;;20.34;73.35;100490.88;4986558;28;20462;-68
2021/07/03 04:01:18;;;;;;;12.43;3.03;;;;;;;20.57;73.52;100522.56;4986242;28;20549;-69
2021/07/03 04:03:45;;;;;;;12.05;4.15;;;;;;;20.54;73.36;100518.41;4989143;28;20070;-70
2021/07/03 04:06:12;;;;;;;6.75;3.15;;;;;;;20.47;73.39;100503.13;4990950;28;20125;-70
2021/07/03 04:08:39;;;;;;;7.63;3.25;;;;;;;20.51;73.38;100507.81;4984411;28;20097;-69
2021/07/03 04:11:05;;;;;;;8.93;2.88;;;;;;;20.50;73.35;100500.44;4984002;28;20450;-70
2021/07/03 04:13:32;;;;;;;8.18;2.90;;;;;;;20.59;73.24;100517.41;4980373;28;20079;-69
2021/07/03 04:15:59;;;;;;;7.65;2.90;;;;;;;20.61;73.30;100519.88;4983524;28;20052;-69
2021/07/03 04:18:26;;;;;;;6.72;2.70;;;;;;;20.53;73.39;100502.59;4989387;28;20129;-67
2021/07/03 04:20:53;;;;;;;11.23;2.75;;;;;;;20.63;73.29;100520.38;4988348;28;20056;-64
2021/07/03 04:23:20;;;;;;;12.85;3.58;;;;;;;20.62;73.35;100519.53;4992868;28;20133;-63
2021/07/03 04:25:47;;;;;;;12.45;3.67;;;;;;;20.53;73.43;100493.25;4992769;28;21012;-61
2021/07/03 04:28:14;;;;;;;10.68;3.17;;;;;;;20.48;73.36;100485.78;4992768;28;20133;-63
2021/07/03 04:30:40;;;;;;;7.20;3.00;;;;;;;20.50;73.34;100493.91;4986238;28;20138;-62
2021/07/03 04:33:08;;;;;;;8.65;2.95;;;;;;;20.62;73.30;100513.03;4982102;28;20046;-63
2021/07/03 04:35:35;;;;;;;7.55;3.50;;;;;;;20.62;73.23;100525.22;4992736;28;20073;-62
2021/07/03 04:38:02;;;;;;;10.55;3.30;;;;;;;20.55;73.25;100503.06;4987065;28;20090;-62
2021/07/03 04:40:29;;;;;;;8.70;3.17;;;;;;;20.40;73.39;100483.81;4993223;28;20046;-64
2021/07/03 04:42:56;;;;;;;8.07;3.38;;;;;;;20.60;73.43;100521.88;4993093;28;20145;-64
2021/07/03 04:45:23;;;;;;;11.52;3.95;;;;;;;20.58;73.30;100525.09;4989642;28;20125;-61
2021/07/03 04:47:51;;;;;;;7.80;2.80;;;;;;;20.59;73.54;100526.72;4990197;28;20125;-58
2021/07/03 04:50:18;;;;;;;9.50;3.15;;;;;;;20.50;73.40;100513.78;4986856;28;20164;-62
2021/07/03 04:52:46;;;;;;;9.80;3.20;;;;;;;20.61;73.47;100531.22;4994292;28;20101;-62
2021/07/03 04:55:13;;;;;;;13.57;3.50;;;;;;;20.39;73.45;100504.88;4990952;28;20046;-62
2021/07/03 04:57:39;;;;;;;13.45;3.20;;;;;;;20.56;73.22;100527.44;4994303;28;20137;-64
2021/07/03 05:00:07;;;;;;;10.73;3.15;;;;;;;20.59;73.44;100529.56;4991718;28;20137;-63
2021/07/03 05:02:34;;;;;;;10.07;3.38;;;;;;;20.63;73.47;100540.22;4985643;28;20074;-63
2021/07/03 05:05:01;;;;;;;8.10;2.95;;;;;;;20.61;73.28;100539.72;4990151;28;20057;-63
2021/07/03 05:07:28;;;;;;;10.32;2.80;;;;;;;20.62;73.34;100541.41;4990286;28;20137;-64
2021/07/03 05:09:55;;;;;;;6.35;2.90;;;;;;;20.62;73.26;100541.41;4986316;28;20157;-62
2021/07/03 05:12:21;;;;;;;8.80;2.80;;;;;;;20.63;73.34;100543.06;4989258;28;20155;-62
2021/07/03 05:14:48;;;;;;;7.82;3.03;;;;;;;20.58;73.40;100536.44;4988835;28;20117;-62
2021/07/03 05:17:15;;;;;;;8.88;3.20;;;;;;;20.58;73.37;100535.56;4992148;28;20086;-63
2021/07/03 05:19:42;;;;;;;5.43;3.20;;;;;;;20.65;73.30;100537.84;4996848;28;20050;-62
2021/07/03 05:22:09;;;;;;;5.75;2.75;;;;;;;20.69;73.25;100553.03;5004065;28;20553;-64
2021/07/03 05:24:36;;;;;;;10.43;3.25;;;;;;;20.68;73.14;100554.19;4985181;28;20543;-62
2021/07/03 05:27:03;;;;;;;9.18;3.58;;;;;;;20.70;73.42;100554.66;4993794;28;20050;-65
2021/07/03 05:29:30;;;;;;;14.13;3.38;;;;;;;20.68;73.34;100557.00;4993980;28;20549;-62
2021/07/03 05:31:56;;;;;;;11.98;3.58;;;;;;;20.72;73.24;100567.34;4982465;28;20137;-62
2021/07/03 05:34:23;;;;;;;7.05;3.25;;;;;;;20.58;73.55;100547.78;4981122;28;20126;-59
2021/07/03 05:36:50;;;;;;;9.68;3.75;;;;;;;20.75;73.21;100568.63;4987171;28;20081;-69
2021/07/03 05:39:17;;;;;;;10.00;3.30;;;;;;;20.67;73.28;100556.19;4990816;28;20142;-64
2021/07/03 05:41:44;;;;;;;16.20;4.30;;;;;;;20.74;73.29;100558.47;4993973;28;20133;-63
2021/07/03 05:44:11;;;;;;;13.52;3.83;;;;;;;20.74;73.10;100564.97;4988992;28;20463;-65
2021/07/03 05:46:38;;;;;;;12.77;4.18;;;;;;;20.56;73.11;100535.94;4982603;28;20475;-66
2021/07/03 05:49:05;;;;;;;14.57;4.55;;;;;;;20.70;73.22;100577.38;4993461;28;20701;-67
2021/07/03 05:51:32;;;;;;;16.92;4.60;;;;;;;20.60;73.33;100555.94;4993557;28;20081;-69
2021/07/03 05:53:59;;;;;;;14.27;3.78;;;;;;;20.67;73.29;100561.03;4993052;28;20443;-65
2021/07/03 05:56:26;;;;;;;10.38;4.05;;;;;;;20.66;73.21;100567.91;4993991;28;20129;-68
2021/07/03 05:58:55;;;;;;;12.93;5.10;;;;;;;20.65;73.25;100566.22;4988405;28;20078;-63
2021/07/03 06:01:23;;;;;;;9.88;4.15;;;;;;;20.65;73.24;100569.06;4987405;28;20050;-66
2021/07/03 06:03:50;;;;;;;10.25;3.75;;;;;;;20.58;73.22;100581.81;4990113;28;20570;-65
2021/07/03 06:06:17;;;;;;;15.35;6.20;;;;;;;20.53;73.06;100579.19;4991558;28;20082;-66
2021/07/03 06:08:44;;;;;;;21.50;5.00;;;;;;;20.51;73.25;100575.88;4976995;28;20471;-62
2021/07/03 06:11:13;;;;;;;21.58;5.20;;;;;;;20.51;73.51;100586.38;4987085;28;20074;-65
2021/07/03 06:13:40;;;;;;;16.73;4.70;;;;;;;20.52;73.36;100588.88;4990988;28;20138;-65
2021/07/03 06:16:07;;;;;;;15.90;4.90;;;;;;;20.37;73.25;100563.94;4993170;28;20125;-70
2021/07/03 06:18:34;;;;;;;17.52;5.07;;;;;;;20.39;73.46;100572.94;4989144;28;20077;-65
2021/07/03 06:21:01;;;;;;;11.25;5.22;;;;;;;20.50;73.34;100588.38;4986423;28;20145;-63
2021/07/03 06:23:29;;;;;;;14.93;4.22;;;;;;;20.49;73.33;100581.03;4989139;28;20088;-65
2021/07/03 06:26:00;;;;;;;15.45;5.55;;;;;;;20.46;73.31;100575.22;4988692;28;20473;-63
2021/07/03 06:28:27;;;;;;;10.73;4.45;;;;;;;20.62;73.26;100598.97;4989608;28;20495;-75
2021/07/03 06:30:54;;;;;;;11.07;4.75;;;;;;;20.64;73.45;100592.94;4988672;28;20169;-74
2021/07/03 06:33:21;;;;;;;13.07;5.68;;;;;;;20.69;73.30;100592.75;4986160;28;20130;-74
2021/07/03 06:35:49;;;;;;;11.43;4.50;;;;;;;20.71;73.39;100604.56;4985442;28;20050;-73
2021/07/03 06:38:16;;;;;;;12.35;4.75;;;;;;;20.79;73.35;100615.03;4988061;28;20068;-74
2021/07/03 06:40:43;;;;;;;15.32;4.80;;;;;;;20.89;73.28;100608.91;4991174;28;20150;-75
2021/07/03 06:43:10;;;;;;;18.10;4.63;;;;;;;20.94;73.02;100619.22;4991713;28;20475;-66
2021/07/03 06:45:37;;;;;;;14.43;4.65;;;;;;;20.89;73.04;100600.41;4990828;28;20089;-71
2021/07/03 06:48:05;;;;;;;15.18;4.95;;;;;;;20.89;72.83;100603.22;4986855;28;20038;-75
2021/07/03 06:50:31;;;;;;;13.93;4.88;;;;;;;20.87;72.81;100608.41;4986147;28;20129;-76
2021/07/03 06:52:58;;;;;;;11.93;4.30;;;;;;;20.96;72.77;100623.38;4992136;28;20050;-76
2021/07/03 06:55:25;;;;;;;8.27;4.32;;;;;;;21.01;72.80;100625.97;5001259;28;20432;-75
2021/07/03 06:57:52;;;;;;;12.75;4.63;;;;;;;21.11;72.84;100627.56;4985024;28;20134;-76
2021/07/03 07:00:19;;;;;;;10.13;3.47;;;;;;;20.85;72.88;100562.50;4986920;28;20128;-76
2021/07/03 07:02:47;;;;;;;8.65;3.05;;;;;;;21.18;72.70;100592.91;5008719;28;20034;-76
2021/07/03 07:05:18;;;;;;;15.30;4.18;;;;;;;21.49;72.51;100613.09;4997804;28;20565;-75
2021/07/03 07:07:45;;;;;;;12.30;3.08;;;;;;;21.76;72.34;100610.75;4992291;28;20626;-76
2021/07/03 07:10:12;;;;;;;9.13;3.03;;;;;;;21.90;72.06;100590.50;4990441;28;20142;-76
2021/07/03 07:12:39;;;;;;;11.20;3.05;;;;;;;22.08;71.68;100582.53;4985326;28;20129;-77
2021/07/03 07:15:07;;;;;;;7.28;2.92;;;;;;;22.32;71.36;100616.66;4991216;28;20125;-75
2021/07/03 07:17:34;;;;;;;10.88;3.58;;;;;;;22.37;71.11;100618.44;4984174;28;20133;-76
2021/07/03 07:20:01;;;;;;;7.38;2.60;;;;;;;22.25;71.29;100599.38;4974578;28;20139;-75
2021/07/03 07:22:28;;;;;;;10.70;3.13;;;;;;;22.04;70.87;100575.91;4989098;28;20452;-75
2021/07/03 07:24:55;;;;;;;10.07;3.78;;;;;;;22.23;70.68;100616.81;4988026;28;20081;-76
2021/07/03 07:27:22;;;;;;;7.88;3.92;;;;;;;22.21;70.63;100619.16;4980641;28;20039;-75
2021/07/03 07:29:49;;;;;;;9.25;3.08;;;;;;;22.06;70.83;100616.22;4987588;28;20084;-76
2021/07/03 07:32:16;;;;;;;8.43;3.53;;;;;;;22.11;70.38;100625.31;4988243;28;20042;-75
2021/07/03 07:34:43;;;;;;;5.30;2.60;;;;;;;22.01;70.25;100609.56;4989077;28;20101;-76
2021/07/03 07:37:10;;;;;;;5.75;3.03;;;;;;;22.19;69.98;100626.44;4994955;28;20473;-76
2021/07/03 07:39:37;;;;;;;8.45;2.10;;;;;;;22.18;69.98;100624.75;4990112;28;20129;-76
2021/07/03 07:42:04;;;;;;;10.30;2.40;;;;;;;22.12;70.06;100614.75;4986950;28;20062;-76
2021/07/03 07:44:31;;;;;;;12.18;3.03;;;;;;;22.30;69.76;100627.59;4993632;28;20570;-76
2021/07/03 07:46:58;;;;;;;11.00;2.78;;;;;;;22.31;69.70;100615.00;4987004;28;20081;-76
2021/07/03 07:49:25;;;;;;;7.32;2.78;;;;;;;22.46;69.80;100631.34;4974394;28;20101;-76
2021/07/03 07:51:52;;;;;;;8.40;2.72;;;;;;;22.58;69.50;100638.19;4989255;28;20181;-77
2021/07/03 07:54:19;;;;;;;7.63;2.63;;;;;;;22.69;69.05;100636.50;4989597;28;20074;-76
2021/07/03 07:56:45;;;;;;;6.93;2.20;;;;;;;22.79;68.64;100624.59;4993151;28;20046;-77
2021/07/03 07:59:12;;;;;;;6.38;2.22;;;;;;;22.90;68.59;100610.66;4984911;28;20049;-76
2021/07/03 08:01:39;;;;;;;7.15;2.40;;;;;;;23.05;67.95;100623.34;4986667;28;20085;-77
2021/07/03 08:04:06;;;;;;;8.38;2.45;;;;;;;23.18;68.08;100625.75;4993838;28;20108;-77
2021/07/03 08:06:33;;;;;;;9.75;2.17;;;;;;;23.33;67.41;100618.41;4986209;28;20137;-74
2021/07/03 08:09:00;;;;;;;6.88;1.88;;;;;;;23.24;67.04;100580.72;4979591;28;20042;-76
2021/07/03 08:11:27;;;;;;;6.95;1.92;;;;;;;23.58;66.75;100606.84;4982913;28;20046;-74
2021/07/03 08:13:54;;;;;;;10.20;2.40;;;;;;;23.71;66.79;100605.59;4987381;28;20132;-74
2021/07/03 08:16:20;;;;;;;6.03;2.15;;;;;;;24.10;66.48;100617.13;4988614;28;20124;-75
2021/07/03 08:18:47;;;;;;;9.00;3.45;;;;;;;24.41;65.77;100606.88;4991979;28;20082;-77
2021/07/03 08:21:16;;;;;;;8.27;2.47;;;;;;;24.73;64.75;100610.44;4984434;28;20503;-76
2021/07/03 08:23:43;;;;;;;5.20;2.63;;;;;;;25.23;64.01;100618.03;4993662;28;20082;-75
2021/07/03 08:26:10;;;;;;;13.18;2.45;;;;;;;25.53;63.26;100623.06;4990111;28;20074;-75
2021/07/03 08:28:38;;;;;;;10.27;2.22;;;;;;;25.44;62.86;100611.88;4994137;28;20519;-73
2021/07/03 08:31:05;;;;;;;9.90;2.30;;;;;;;25.68;61.68;100642.13;4995623;28;20126;-74
2021/07/03 08:33:32;;;;;;;4.72;1.73;;;;;;;25.72;61.06;100634.44;4988354;28;20043;-74
2021/07/03 08:35:59;;;;;;;7.90;2.60;;;;;;;25.63;60.99;100619.56;5002487;28;20133;-74
2021/07/03 08:38:26;;;;;;;8.93;2.38;;;;;;;25.68;60.65;100629.88;4992987;28;20089;-74
2021/07/03 08:40:55;;;;;;;10.35;1.67;;;;;;;25.84;60.58;100635.47;4981234;28;20081;-73
2021/07/03 08:43:22;;;;;;;9.30;1.80;;;;;;;25.87;60.06;100635.53;4984597;28;20599;-74
2021/07/03 08:46:04;;;;;;;7.10;1.92;;;;;;;25.92;59.94;100645.84;4995190;28;20050;-75
2021/07/03 08:48:31;;;;;;;5.90;2.13;;;;;;;25.94;59.42;100652.00;4995722;28;20057;-74
2021/07/03 08:50:59;;;;;;;7.95;2.33;;;;;;;26.13;59.10;100649.06;4995404;28;20530;-74
2021/07/03 08:53:26;;;;;;;8.80;2.58;;;;;;;26.34;58.23;100636.28;4995588;28;20584;-74
2021/07/03 08:55:53;;;;;;;6.00;2.08;;;;;;;26.64;57.35;100650.66;4992130;28;20546;-75
2021/07/03 08:58:21;;;;;;;8.25;2.20;;;;;;;27.07;56.85;100651.22;4995695;28;20133;-75
2021/07/03 09:00:48;;;;;;;8.18;1.50;;;;;;;27.45;56.03;100655.75;4994911;28;20073;-73
2021/07/03 09:03:21;;;;;;;4.70;1.90;;;;;;;27.93;55.09;100647.22;4996576;28;20129;-74
2021/07/03 09:05:56;;;;;;;4.65;1.60;;;;;;;28.17;54.74;100622.00;4981980;28;20129;-74
2021/07/03 09:08:27;;;;;;;7.85;1.83;;;;;;;28.22;53.80;100641.75;4986860;28;20050;-74
2021/07/03 09:11:05;;;;;;;2.90;1.50;;;;;;;28.56;53.70;100645.28;4996175;28;20101;-74
2021/07/03 09:13:36;;;;;;;5.07;1.65;;;;;;;28.56;53.49;100637.47;4997071;28;20086;-74
2021/07/03 09:16:03;;;;;;;10.88;4.55;;;;;;;28.36;53.16;100641.81;4999173;28;20492;-74
2021/07/03 09:18:31;;;;;;;3.22;1.85;;;;;;;27.87;53.26;100646.78;4998718;28;20042;-76
2021/07/03 09:21:00;;;;;;;8.75;1.48;;;;;;;27.56;53.46;100639.50;4996380;28;20133;-73
2021/07/03 09:23:37;;;;;;;8.70;4.40;;;;;;;27.35;54.10;100640.13;4995123;28;20038;-76
2021/07/03 09:26:07;;;;;;;12.88;9.95;;;;;;;27.10;54.09;100639.78;4993011;28;20129;-76
2021/07/03 09:28:40;;;;;;;19.23;11.68;;;;;;;26.80;54.31;100647.59;4991819;28;20046;-74
2021/07/03 09:31:09;;;;;;;9.48;3.92;;;;;;;26.44;54.68;100647.06;4994797;28;20558;-75
2021/07/03 09:33:40;;;;;;;7.65;2.40;;;;;;;26.07;55.39;100676.34;4994059;28;20046;-75
2021/07/03 09:36:09;;;;;;;7.55;2.72;;;;;;;25.73;56.14;100658.13;4994685;28;20086;-75
2021/07/03 09:38:37;;;;;;;10.40;2.70;;;;;;;25.52;56.71;100676.56;4994680;28;20090;-75
2021/07/03 09:41:12;;;;;;;7.70;2.35;;;;;;;25.36;56.68;100675.00;4994290;28;20097;-75
2021/07/03 09:43:49;;;;;;;9.15;2.30;;;;;;;25.32;57.55;100682.69;4994005;28;20078;-74
2021/07/03 09:46:28;;;;;;;7.15;2.65;;;;;;;25.14;57.51;100633.75;4994229;28;20089;-76
2021/07/03 09:49:02;;;;;;;6.80;2.13;;;;;;;25.37;57.33;100668.06;4994650;28;20043;-75
2021/07/03 09:51:31;;;;;;;5.32;1.92;;;;;;;25.52;57.14;100675.75;4993692;28;20138;-76
2021/07/03 09:53:59;;;;;;;5.93;1.73;;;;;;;25.69;57.15;100685.84;5009144;28;20134;-75
2021/07/03 09:56:27;;;;;;;6.00;1.63;;;;;;;25.74;56.64;100672.06;4994252;28;20133;-76
2021/07/03 09:58:54;;;;;;;4.75;1.70;;;;;;;25.92;56.58;100694.47;4990892;28;20061;-75
2021/07/03 10:01:22;;;;;;;4.93;1.65;;;;;;;25.93;56.22;100673.25;4992541;28;20070;-76
2021/07/03 10:03:49;;;;;;;7.22;2.00;;;;;;;26.11;55.69;100688.66;4983807;28;20038;-75
2021/07/03 10:06:25;;;;;;;10.63;4.30;;;;;;;26.36;55.45;100679.66;4978795;28;20121;-75
2021/07/03 10:09:02;;;;;;;4.88;2.55;;;;;;;26.61;55.15;100680.06;4977059;28;20089;-76
2021/07/03 10:11:32;;;;;;;4.93;2.80;;;;;;;26.72;54.65;100649.53;4993012;28;20046;-76
2021/07/03 10:14:02;;;;;;;;;;;;;;;27.05;56.30;100688.06;4992877;28;20046;-75
2021/07/03 10:16:30;;;;;;;6.82;2.38;;;;;;;27.24;54.76;100682.16;4990064;28;19965;-75
2021/07/03 10:19:15;;;;;;;9.27;3.38;;;;;;;27.24;54.47;100687.06;5008381;28;20051;-74
2021/07/03 10:21:47;;;;;;;6.05;2.05;;;;;;;27.60;53.66;100697.75;4980070;28;20077;-74
2021/07/03 10:24:22;;;;;;;8.23;1.73;;;;;;;27.69;53.06;100687.97;4984600;28;20069;-74
2021/07/03 10:26:53;;;;;;;4.07;1.48;;;;;;;27.62;52.84;100703.91;4994144;28;20074;-74
2021/07/03 10:29:22;;;;;;;3.15;1.30;;;;;;;27.55;52.92;100683.72;4991449;28;20086;-75
2021/07/03 10:31:52;;;;;;;5.28;1.48;;;;;;;27.92;52.46;100685.78;4992957;28;20081;-75
2021/07/03 10:34:33;;;;;;;6.22;2.70;;;;;;;28.05;52.30;100690.00;4987756;28;20046;-74
2021/07/03 10:37:11;;;;;;;9.15;6.00;;;;;;;28.20;51.94;100692.97;4992570;28;20058;-74
2021/07/03 10:39:37;;;;;;;7.47;2.47;;;;;;;28.24;51.36;100694.69;4993223;28;20459;-74
2021/07/03 10:42:05;;;;;;;4.53;1.30;;;;;;;28.18;51.59;100689.69;4992314;28;20441;-75
2021/07/03 10:44:42;;;;;;;3.22;2.08;;;;;;;28.16;51.22;100680.66;4991897;28;20129;-74
2021/07/03 10:47:11;;;;;;;2.55;1.20;;;;;;;27.98;51.25;100681.31;4993131;28;20133;-74
2021/07/03 10:49:39;;;;;;;5.43;2.15;;;;;;;28.60;51.00;100671.16;4993095;28;20168;-75
2021/07/03 10:52:17;;;;;;;2.80;1.35;;;;;;;29.09;50.25;100666.91;4992716;28;20089;-75
2021/07/03 10:54:44;;;;;;;7.40;1.42;;;;;;;28.94;50.02;100680.38;4993234;28;20126;-75
2021/07/03 10:57:11;;;;;;;4.43;1.60;;;;;;;29.37;49.41;100672.78;4992544;28;20050;-75
2021/07/03 10:59:41;;;;;;;4.25;1.42;;;;;;;29.38;48.19;100674.41;4993005;28;20093;-75
2021/07/03 11:02:14;;;;;;;4.45;1.23;;;;;;;29.17;49.09;100680.09;4990311;28;20046;-75
2021/07/03 11:04:54;;;;;;;6.15;1.88;;;;;;;28.98;48.81;100684.91;4992572;28;20096;-76
2021/07/03 11:07:32;;;;;;;5.53;1.80;;;;;;;28.92;49.83;100683.63;4992795;28;20610;-76
2021/07/03 11:10:26;;;;;;;6.38;1.50;;;;;;;29.03;49.92;100687.44;4991277;28;20100;-75
2021/07/03 11:12:55;;;;;;;2.95;1.60;;;;;;;29.53;48.87;100683.91;4992413;28;20137;-76
2021/07/03 11:15:27;;;;;;;3.55;1.33;;;;;;;30.13;47.68;100686.06;4993294;28;20046;-76
2021/07/03 11:17:59;;;;;;;5.30;1.20;;;;;;;30.34;46.65;100676.63;4992149;28;20097;-75
2021/07/03 11:20:35;;;;;;;4.82;1.42;;;;;;;30.28;47.36;100686.91;4993052;28;20058;-75
2021/07/03 11:23:04;;;;;;;3.60;1.25;;;;;;;30.36;46.10;100676.19;4992914;28;20122;-75
2021/07/03 11:25:37;;;;;;;8.70;2.10;;;;;;;30.36;46.80;100679.91;4991940;28;20104;-75
2021/07/03 11:28:08;;;;;;;3.10;1.30;;;;;;;30.59;45.85;100685.22;4991922;28;20138;-74